Time;durP1;ratioP1;P1;durP2;ratioP2;P2;SDS_P1;SDS_P2;PMS_P1;PMS_P2;Temp;Humidity;BMP_temperature;BMP_pressure;BME280_temperature;BME280_humidity;BME280_pressure;Samples;Min_cycle;Max_cycle;Signal;HPM_P1;HPM_P2
2021/11/16 00:02:25;;;;;;;97.63;39.78;;;6.10;99.90;;;;;;5072208;28;20470;-68
2021/11/16 00:04:51;;;;;;;94.70;38.92;;;6.10;99.90;;;;;;5073969;28;20032;-68
2021/11/16 00:07:18;;;;;;;91.80;39.85;;;6.00;99.90;;;;;;5072170;28;20119;-68
2021/11/16 00:09:45;;;;;;;90.13;37.17;;;6.00;99.90;;;;;;5073659;28;20029;-68
2021/11/16 00:12:11;;;;;;;90.57;38.08;;;6.00;99.90;;;;;;5073123;28;20397;-68
2021/11/16 00:14:36;;;;;;;82.88;35.33;;;6.00;99.90;;;;;;5073898;28;20105;-68
2021/11/16 00:17:02;;;;;;;86.65;35.92;;;6.00;99.90;;;;;;5072400;28;20024;-68
2021/11/16 00:19:28;;;;;;;91.80;36.78;;;6.00;99.90;;;;;;5072120;28;20020;-68
2021/11/16 00:21:56;;;;;;;83.68;36.83;;;6.00;99.90;;;;;;5073861;28;20044;-68
2021/11/16 00:24:35;;;;;;;82.45;35.47;;;6.00;99.90;;;;;;5073823;28;20101;-68
2021/11/16 00:27:02;;;;;;;85.07;34.22;;;6.00;99.90;;;;;;5073261;28;20427;-68
2021/11/16 00:29:27;;;;;;;89.93;35.65;;;6.00;99.90;;;;;;5072347;28;20351;-68
2021/11/16 00:31:53;;;;;;;95.60;38.78;;;5.90;99.90;;;;;;5072489;28;20027;-68
2021/11/16 00:34:18;;;;;;;88.90;36.42;;;5.90;99.90;;;;;;5075152;28;20016;-68
2021/11/16 00:36:44;;;;;;;85.18;34.67;;;5.90;99.90;;;;;;5077441;28;20473;-68
2021/11/16 00:39:11;;;;;;;85.55;35.70;;;5.90;99.90;;;;;;5077673;28;20599;-68
2021/11/16 00:41:36;;;;;;;84.97;35.20;;;5.90;99.90;;;;;;5077657;28;20020;-68
2021/11/16 00:44:02;;;;;;;77.18;33.97;;;5.90;99.90;;;;;;5075797;28;20115;-68
2021/11/16 00:46:28;;;;;;;83.43;34.95;;;5.90;99.90;;;;;;5077306;28;20492;-68
2021/11/16 00:48:53;;;;;;;82.57;33.55;;;5.90;99.90;;;;;;5076502;28;20123;-68
2021/11/16 00:51:19;;;;;;;82.25;34.58;;;5.90;99.90;;;;;;5076272;28;20111;-68
2021/11/16 00:53:44;;;;;;;76.90;34.50;;;5.90;99.90;;;;;;5077324;28;20038;-68
2021/11/16 00:56:11;;;;;;;86.30;35.78;;;5.90;99.90;;;;;;5075865;28;20029;-68
2021/11/16 00:58:37;;;;;;;88.15;36.08;;;5.90;99.90;;;;;;5077284;28;20029;-68
2021/11/16 01:01:04;;;;;;;90.03;37.35;;;5.90;99.90;;;;;;5076665;28;20091;-68
2021/11/16 01:03:30;;;;;;;91.15;36.90;;;5.90;99.90;;;;;;5075786;28;20032;-68
2021/11/16 01:05:56;;;;;;;92.07;37.65;;;5.90;99.90;;;;;;5077182;28;20017;-68
2021/11/16 01:08:22;;;;;;;85.43;35.17;;;5.80;99.90;;;;;;5075842;28;20025;-68
2021/11/16 01:10:49;;;;;;;88.28;37.38;;;5.90;99.90;;;;;;5076841;28;20020;-68
2021/11/16 01:13:18;;;;;;;93.70;36.60;;;5.80;99.90;;;;;;5076498;28;20044;-68
2021/11/16 01:15:46;;;;;;;89.03;36.75;;;5.80;99.90;;;;;;5076999;28;20020;-67
2021/11/16 01:18:13;;;;;;;90.35;36.75;;;5.80;99.90;;;;;;5076946;28;20016;-68
2021/11/16 01:20:39;;;;;;;97.07;37.17;;;5.80;99.90;;;;;;5076905;28;20017;-68
2021/11/16 01:23:08;;;;;;;97.10;36.38;;;5.80;99.90;;;;;;5076311;28;20389;-68
2021/11/16 01:25:37;;;;;;;93.60;38.15;;;5.70;99.90;;;;;;5075000;28;20029;-68
2021/11/16 01:28:08;;;;;;;92.05;37.50;;;5.70;99.90;;;;;;5076769;28;20044;-68
2021/11/16 01:30:34;;;;;;;88.00;36.08;;;5.70;99.90;;;;;;5076704;28;20026;-68
2021/11/16 01:33:06;;;;;;;93.38;36.42;;;5.70;99.90;;;;;;5076044;28;20039;-67
2021/11/16 01:35:33;;;;;;;95.78;36.40;;;5.80;99.90;;;;;;5076357;28;20023;-68
2021/11/16 01:37:59;;;;;;;89.88;35.78;;;5.80;99.90;;;;;;5075162;28;20424;-68
2021/11/16 01:40:25;;;;;;;95.28;36.47;;;5.80;99.90;;;;;;5058155;28;20104;-68
2021/11/16 01:42:52;;;;;;;90.28;35.10;;;5.80;99.90;;;;;;5076500;28;20029;-68
2021/11/16 01:45:19;;;;;;;90.97;37.25;;;5.70;99.90;;;;;;5074544;28;20421;-68
2021/11/16 01:47:46;;;;;;;89.60;35.95;;;5.70;99.90;;;;;;5074577;28;20020;-68
2021/11/16 01:50:13;;;;;;;89.53;35.30;;;5.70;99.90;;;;;;5076073;28;20384;-68
2021/11/16 01:52:39;;;;;;;94.45;37.00;;;5.70;99.90;;;;;;5074453;28;20366;-68
2021/11/16 01:55:07;;;;;;;96.53;37.72;;;5.60;99.90;;;;;;5074802;28;20031;-68
2021/11/16 01:57:34;;;;;;;99.05;39.45;;;5.60;99.90;;;;;;5076205;28;20012;-68
2021/11/16 02:00:00;;;;;;;102.10;40.50;;;5.60;99.90;;;;;;5076179;28;20104;-68
2021/11/16 02:02:26;;;;;;;103.25;40.58;;;5.60;99.90;;;;;;5057969;28;20446;-68
2021/11/16 02:04:52;;;;;;;103.65;40.35;;;5.60;99.90;;;;;;5076059;28;20115;-68
2021/11/16 02:07:17;;;;;;;110.55;41.28;;;5.60;99.90;;;;;;5074607;28;20056;-68
2021/11/16 02:09:43;;;;;;;112.80;42.50;;;5.60;99.90;;;;;;5074528;28;20040;-68
2021/11/16 02:12:09;;;;;;;110.30;44.17;;;5.60;99.90;;;;;;5074185;28;20090;-68
2021/11/16 02:14:35;;;;;;;106.93;41.50;;;5.60;99.90;;;;;;5074887;28;20067;-68
2021/11/16 02:17:03;;;;;;;100.68;41.22;;;5.60;99.90;;;;;;5075865;28;20023;-68
2021/11/16 02:19:28;;;;;;;116.88;42.67;;;5.60;99.90;;;;;;5075544;28;20553;-68
2021/11/16 02:21:54;;;;;;;109.75;41.13;;;5.60;99.90;;;;;;5075729;28;20111;-67
2021/11/16 02:24:20;;;;;;;121.07;45.00;;;5.60;99.90;;;;;;5075688;28;20025;-68
2021/11/16 02:26:46;;;;;;;108.63;43.15;;;5.60;99.90;;;;;;5075095;28;20021;-68
2021/11/16 02:29:12;;;;;;;114.50;44.03;;;5.60;99.90;;;;;;5073877;28;20099;-68
2021/11/16 02:31:37;;;;;;;123.57;44.95;;;5.60;99.90;;;;;;5073742;28;20059;-68
2021/11/16 02:34:05;;;;;;;115.63;43.33;;;5.60;99.90;;;;;;5075453;28;20029;-68
2021/11/16 02:36:32;;;;;;;115.30;43.78;;;5.60;99.90;;;;;;5075480;28;20017;-68
2021/11/16 02:38:58;;;;;;;118.63;45.15;;;5.60;99.90;;;;;;5073666;28;20470;-68
2021/11/16 02:41:29;;;;;;;116.05;43.67;;;5.60;99.90;;;;;;5075354;28;20020;-68
2021/11/16 02:43:56;;;;;;;121.40;46.50;;;5.60;99.90;;;;;;5075286;28;20107;-68
2021/11/16 02:46:22;;;;;;;114.18;44.53;;;5.60;99.90;;;;;;5075275;28;20102;-68
2021/11/16 02:48:47;;;;;;;112.43;44.03;;;5.60;99.90;;;;;;5073466;28;20071;-68
2021/11/16 02:51:13;;;;;;;115.63;45.50;;;5.60;99.90;;;;;;5074877;28;20043;-68
2021/11/16 02:53:41;;;;;;;112.13;44.70;;;5.60;99.90;;;;;;5073213;28;20036;-68
2021/11/16 02:56:07;;;;;;;115.35;44.28;;;5.60;99.90;;;;;;5074442;28;20100;-68
2021/11/16 02:58:34;;;;;;;108.82;42.95;;;5.60;99.90;;;;;;5073383;28;20025;-68
2021/11/16 03:01:06;;;;;;;106.18;42.53;;;5.60;99.90;;;;;;5074985;28;20012;-68
2021/11/16 03:03:32;;;;;;;98.33;40.37;;;5.60;99.90;;;;;;5073480;28;20458;-68
2021/11/16 03:05:58;;;;;;;96.13;41.90;;;5.60;99.90;;;;;;5073434;28;20313;-68
2021/11/16 03:08:26;;;;;;;102.72;41.85;;;5.60;99.90;;;;;;5074791;28;20436;-68
2021/11/16 03:10:57;;;;;;;103.43;39.85;;;5.60;99.90;;;;;;5073474;28;20120;-68
2021/11/16 03:13:25;;;;;;;97.00;41.35;;;5.60;99.90;;;;;;5073975;28;20421;-68
2021/11/16 03:15:51;;;;;;;95.22;39.58;;;5.60;99.90;;;;;;5074758;28;20059;-68
2021/11/16 03:18:17;;;;;;;95.57;39.05;;;5.50;99.90;;;;;;5073232;28;20032;-68
2021/11/16 03:20:44;;;;;;;99.03;40.50;;;5.60;99.90;;;;;;5074629;28;20099;-68
2021/11/16 03:23:21;;;;;;;79.63;33.10;;;5.60;99.90;;;;;;5072793;28;20024;-68
2021/11/16 03:25:52;;;;;;;82.90;35.53;;;5.60;99.90;;;;;;5074581;28;20368;-68
2021/11/16 03:28:19;;;;;;;90.40;37.00;;;5.60;99.90;;;;;;5074518;28;20048;-68
2021/11/16 03:30:48;;;;;;;85.40;36.30;;;5.60;99.90;;;;;;5073906;28;20056;-68
2021/11/16 03:33:15;;;;;;;93.15;39.20;;;5.60;99.90;;;;;;5074086;28;20027;-68
2021/11/16 03:35:41;;;;;;;93.10;38.50;;;5.60;99.90;;;;;;5074388;28;20466;-68
2021/11/16 03:38:08;;;;;;;96.65;40.35;;;5.60;99.90;;;;;;5073823;28;20016;-68
2021/11/16 03:40:35;;;;;;;91.90;39.05;;;5.60;99.90;;;;;;5074333;28;20462;-68
2021/11/16 03:43:02;;;;;;;95.38;38.85;;;5.60;99.90;;;;;;5074010;28;20021;-68
2021/11/16 03:45:28;;;;;;;86.95;37.78;;;5.60;99.90;;;;;;5072804;28;20020;-68
2021/11/16 03:47:56;;;;;;;93.75;38.92;;;5.70;99.90;;;;;;5074186;28;20039;-68
2021/11/16 03:50:25;;;;;;;93.85;39.85;;;5.60;99.90;;;;;;5074136;28;20100;-68
2021/11/16 03:52:53;;;;;;;94.85;37.65;;;5.60;99.90;;;;;;5073794;28;20115;-68
2021/11/16 03:55:22;;;;;;;79.88;34.40;;;5.60;99.90;;;;;;5074130;28;20418;-68
2021/11/16 03:57:49;;;;;;;91.60;38.47;;;5.60;99.90;;;;;;5074068;28;20025;-68
2021/11/16 04:00:19;;;;;;;87.35;37.20;;;5.60;99.90;;;;;;5073765;28;20046;-68
2021/11/16 04:02:44;;;;;;;81.80;37.70;;;5.60;99.90;;;;;;5072876;28;20028;-68
2021/11/16 04:05:12;;;;;;;90.38;37.45;;;5.60;99.90;;;;;;5072180;28;20153;-68
2021/11/16 04:07:38;;;;;;;85.20;35.13;;;5.50;99.90;;;;;;5073498;28;20029;-67
2021/11/16 04:10:10;;;;;;;83.18;35.22;;;5.50;99.90;;;;;;5073916;28;20073;-68
2021/11/16 04:12:36;;;;;;;86.82;35.55;;;5.50;99.90;;;;;;5073307;28;20041;-68
2021/11/16 04:15:01;;;;;;;87.18;35.08;;;5.50;99.90;;;;;;5073621;28;20024;-68
2021/11/16 04:17:27;;;;;;;84.00;35.80;;;5.50;99.90;;;;;;5073830;28;20016;-68
2021/11/16 04:19:53;;;;;;;91.13;37.75;;;5.50;99.90;;;;;;5073281;28;20070;-68
2021/11/16 04:22:19;;;;;;;83.07;36.97;;;5.50;99.90;;;;;;5073856;28;20025;-68
2021/11/16 04:24:44;;;;;;;91.15;35.80;;;5.50;99.90;;;;;;5073605;28;20036;-68
2021/11/16 04:27:10;;;;;;;88.55;35.63;;;5.50;99.90;;;;;;5072054;28;20036;-68
2021/11/16 04:29:35;;;;;;;82.40;34.95;;;5.50;99.90;;;;;;5073807;28;20029;-68
2021/11/16 04:32:01;;;;;;;86.43;34.67;;;5.60;99.90;;;;;;5073416;28;20032;-68
2021/11/16 04:34:27;;;;;;;80.50;34.38;;;5.60;99.90;;;;;;5073466;28;20028;-68
2021/11/16 04:36:52;;;;;;;85.90;34.72;;;5.60;99.90;;;;;;5071964;28;20074;-68
2021/11/16 04:39:18;;;;;;;80.35;33.83;;;5.60;99.90;;;;;;5073623;28;20103;-68
2021/11/16 04:41:44;;;;;;;79.45;34.17;;;5.60;99.90;;;;;;5073617;28;20016;-68
2021/11/16 04:44:11;;;;;;;78.60;33.35;;;5.60;99.90;;;;;;5073654;28;20131;-68
2021/11/16 04:46:37;;;;;;;79.10;33.70;;;5.60;99.90;;;;;;5073672;28;20057;-68
2021/11/16 04:49:08;;;;;;;83.82;35.45;;;5.60;99.90;;;;;;5055282;28;20405;-68
2021/11/16 04:54:42;;;;;;;75.90;32.25;;;5.60;99.90;;;;;;5072873;28;20074;-68
2021/11/16 05:02:39;;;;;;;91.43;38.15;;;5.60;99.90;;;;;;5072797;28;20081;-68
2021/11/16 05:05:09;;;;;;;90.93;37.33;;;5.60;99.90;;;;;;5072023;28;20020;-68
2021/11/16 05:07:36;;;;;;;92.45;38.83;;;5.60;99.90;;;;;;5073370;28;20034;-68
2021/11/16 05:10:05;;;;;;;94.80;39.10;;;5.60;99.90;;;;;;5073384;28;20017;-68
2021/11/16 05:12:32;;;;;;;86.20;36.72;;;5.60;99.90;;;;;;5071927;28;20052;-68
2021/11/16 05:15:01;;;;;;;89.00;37.83;;;5.60;99.90;;;;;;5073332;28;20017;-68
2021/11/16 05:17:27;;;;;;;91.68;38.03;;;5.60;99.90;;;;;;5073319;28;20013;-68
2021/11/16 05:19:53;;;;;;;97.00;38.70;;;5.50;99.90;;;;;;5072778;28;20519;-68
2021/11/16 05:22:19;;;;;;;83.68;36.42;;;5.50;99.90;;;;;;5075352;28;20035;-68
2021/11/16 05:24:45;;;;;;;94.40;37.10;;;5.60;99.90;;;;;;5076304;28;20114;-68
2021/11/16 05:27:11;;;;;;;97.20;38.78;;;5.60;99.90;;;;;;5075046;28;20064;-68
2021/11/16 05:29:37;;;;;;;90.93;38.55;;;5.60;99.90;;;;;;5076811;28;20029;-68
2021/11/16 05:32:03;;;;;;;88.88;36.83;;;5.50;99.90;;;;;;5075205;28;20024;-68
2021/11/16 05:34:29;;;;;;;94.95;40.42;;;5.60;99.90;;;;;;5076723;28;20486;-68
2021/11/16 05:36:54;;;;;;;88.93;37.72;;;5.50;99.90;;;;;;5076635;28;20048;-68
2021/11/16 05:39:20;;;;;;;90.32;38.88;;;5.50;99.90;;;;;;5076348;28;20485;-68
2021/11/16 05:41:47;;;;;;;89.85;37.05;;;5.50;99.90;;;;;;5076281;28;20458;-68
2021/11/16 05:44:13;;;;;;;89.47;38.60;;;5.60;99.90;;;;;;5076505;28;20024;-68
2021/11/16 05:46:39;;;;;;;82.10;36.20;;;5.60;99.90;;;;;;5076478;28;20108;-67
2021/11/16 05:49:05;;;;;;;93.30;38.10;;;5.50;99.90;;;;;;5075016;28;20108;-68
2021/11/16 05:51:31;;;;;;;90.65;37.28;;;5.60;99.90;;;;;;5076380;28;20024;-68
2021/11/16 05:54:00;;;;;;;89.25;36.72;;;5.50;99.90;;;;;;5074470;28;20054;-68
2021/11/16 05:56:28;;;;;;;94.63;39.22;;;5.50;99.90;;;;;;5076009;28;20024;-68
2021/11/16 05:58:56;;;;;;;101.72;41.05;;;5.50;99.90;;;;;;5076286;28;20055;-68
2021/11/16 06:01:24;;;;;;;98.90;40.00;;;5.50;99.90;;;;;;5076161;28;20150;-68
2021/11/16 06:03:52;;;;;;;89.78;37.85;;;5.40;99.90;;;;;;5074277;28;20028;-67
2021/11/16 06:06:22;;;;;;;99.22;39.42;;;5.50;99.90;;;;;;5074659;28;20460;-68
2021/11/16 06:08:48;;;;;;;102.30;39.72;;;5.40;99.90;;;;;;5074302;28;20056;-68
2021/11/16 06:11:17;;;;;;;96.68;38.85;;;5.40;99.90;;;;;;5074504;28;20025;-67
2021/11/16 06:13:43;;;;;;;94.03;40.70;;;5.50;99.90;;;;;;5075213;28;20448;-67
2021/11/16 06:16:09;;;;;;;100.07;39.55;;;5.50;99.90;;;;;;5075962;28;20067;-68
2021/11/16 06:18:35;;;;;;;104.00;41.13;;;5.50;99.90;;;;;;5075927;28;20048;-67
2021/11/16 06:21:00;;;;;;;93.90;39.33;;;5.50;99.90;;;;;;5074380;28;20039;-67
2021/11/16 06:23:26;;;;;;;113.60;43.08;;;5.40;99.90;;;;;;5074630;28;20465;-68
2021/11/16 06:25:51;;;;;;;107.10;41.45;;;5.40;99.90;;;;;;5075695;28;20428;-67
2021/11/16 06:28:17;;;;;;;97.25;41.65;;;5.40;99.90;;;;;;5075666;28;20488;-68
2021/11/16 06:30:42;;;;;;;102.97;41.92;;;5.40;99.90;;;;;;5075573;28;20078;-68
2021/11/16 06:33:08;;;;;;;107.32;40.83;;;5.50;99.90;;;;;;5075225;28;20029;-67
2021/11/16 06:35:34;;;;;;;107.82;41.45;;;5.50;99.90;;;;;;5073995;28;20024;-67
2021/11/16 06:37:59;;;;;;;98.03;40.65;;;5.50;99.90;;;;;;5074059;28;20025;-68
2021/11/16 06:40:26;;;;;;;100.22;39.30;;;5.50;99.90;;;;;;5073962;28;20072;-67
2021/11/16 06:42:52;;;;;;;97.68;40.13;;;5.40;99.90;;;;;;5074174;28;20035;-68
2021/11/16 06:45:18;;;;;;;103.03;42.33;;;5.40;99.90;;;;;;5074132;28;20052;-67
2021/11/16 06:47:44;;;;;;;103.88;42.05;;;5.50;99.90;;;;;;5075215;28;20056;-67
2021/11/16 06:50:10;;;;;;;101.82;40.03;;;5.50;99.90;;;;;;5056854;28;20024;-68
2021/11/16 06:52:38;;;;;;;94.78;39.88;;;5.40;99.90;;;;;;5075088;28;20059;-67
2021/11/16 06:55:06;;;;;;;112.07;42.47;;;5.40;99.90;;;;;;5074722;28;20024;-68
2021/11/16 06:57:33;;;;;;;110.28;43.22;;;5.40;99.90;;;;;;5073138;28;20024;-67
2021/11/16 06:59:59;;;;;;;105.65;41.78;;;5.40;99.90;;;;;;5075030;28;20020;-67
2021/11/16 07:02:26;;;;;;;101.25;41.28;;;5.40;99.90;;;;;;5074427;28;20024;-67
2021/11/16 07:04:53;;;;;;;108.95;43.63;;;5.40;99.90;;;;;;5074859;28;20020;-68
2021/11/16 07:07:19;;;;;;;97.75;41.20;;;5.40;99.90;;;;;;5073898;28;20020;-67
2021/11/16 07:09:45;;;;;;;105.03;42.05;;;5.40;99.90;;;;;;5074829;28;20419;-68
2021/11/16 07:12:15;;;;;;;110.13;43.58;;;5.40;99.90;;;;;;5073018;28;20455;-67
2021/11/16 07:14:41;;;;;;;108.32;42.65;;;5.40;99.90;;;;;;5056581;28;20017;-68
2021/11/16 07:17:09;;;;;;;107.95;43.28;;;5.30;99.90;;;;;;5056115;28;20016;-68
2021/11/16 07:22:31;;;;;;;115.28;44.35;;;5.40;99.90;;;;;;5111389;27;20376;-68
2021/11/16 07:25:02;;;;;;;107.93;42.65;;;5.40;99.90;;;;;;5110396;28;20035;-68
2021/11/16 07:27:36;;;;;;;108.75;43.63;;;5.40;99.90;;;;;;5111292;28;20024;-68
2021/11/16 07:30:03;;;;;;;;;;;5.40;99.90;;;;;;5111900;28;20350;-67
2021/11/16 07:32:33;;;;;;;104.65;40.60;;;5.30;99.90;;;;;;5111653;28;19904;-68
2021/11/16 07:35:04;;;;;;;104.65;41.55;;;5.40;99.90;;;;;;5110610;28;20103;-67
2021/11/16 07:37:33;;;;;;;109.03;42.83;;;5.30;99.90;;;;;;5109851;28;20016;-68
2021/11/16 07:40:04;;;;;;;113.25;45.33;;;5.40;99.90;;;;;;5111234;28;20027;-68
2021/11/16 07:42:34;;;;;;;105.60;42.13;;;5.30;99.90;;;;;;5111514;28;20019;-68
2021/11/16 07:45:11;;;;;;;107.85;44.47;;;5.30;99.90;;;;;;5110313;28;20465;-67
2021/11/16 07:47:59;;;;;;;112.10;44.40;;;5.40;99.90;;;;;;5109574;28;20109;-68
2021/11/16 07:58:35;;;;;;;117.05;45.47;;;5.40;99.90;;;;;;5112129;27;20832;-67
2021/11/16 08:01:08;;;;;;;118.15;45.10;;;5.30;99.90;;;;;;5111275;28;20473;-68
2021/11/16 08:03:43;;;;;;;123.60;46.17;;;5.30;99.90;;;;;;5110155;28;20020;-67
2021/11/16 08:06:15;;;;;;;115.72;46.60;;;5.30;99.90;;;;;;5116910;28;20430;-67
2021/11/16 08:11:31;;;;;;;127.65;46.00;;;5.30;99.90;;;;;;5110701;27;20769;-68
2021/11/16 08:14:05;;;;;;;120.97;45.35;;;5.30;99.90;;;;;;5099778;28;20016;-68
2021/11/16 08:16:32;;;;;;;119.13;46.30;;;5.30;99.90;;;;;;5110606;28;20030;-68
2021/11/16 08:19:05;;;;;;;123.72;47.38;;;5.30;99.90;;;;;;5089285;28;20503;-68
2021/11/16 08:21:33;;;;;;;115.95;46.38;;;5.30;99.90;;;;;;5091383;28;20475;-69
2021/11/16 08:24:04;;;;;;;117.18;44.25;;;5.30;99.90;;;;;;5090572;28;20016;-68
2021/11/16 08:26:34;;;;;;;115.68;43.58;;;5.30;99.90;;;;;;5090865;28;20017;-68
2021/11/16 08:29:01;;;;;;;120.82;45.50;;;5.30;99.90;;;;;;5089661;28;20489;-68
2021/11/16 08:31:34;;;;;;;119.20;44.47;;;5.40;99.90;;;;;;5090940;28;20024;-68
2021/11/16 08:34:00;;;;;;;118.15;45.17;;;5.30;99.90;;;;;;5089333;28;20470;-68
2021/11/16 08:36:29;;;;;;;123.75;45.05;;;5.40;99.90;;;;;;5104200;28;20024;-68
2021/11/16 08:38:57;;;;;;;120.80;44.30;;;5.40;99.90;;;;;;5111226;28;20027;-68
2021/11/16 08:41:30;;;;;;;124.80;45.88;;;5.30;99.90;;;;;;5096274;28;20099;-68
2021/11/16 08:44:18;;;;;;;123.00;45.78;;;5.30;99.90;;;;;;5089029;28;20024;-68
2021/11/16 08:46:45;;;;;;;116.13;44.70;;;5.40;99.90;;;;;;5108386;28;20031;-68
2021/11/16 08:49:30;;;;;;;121.80;43.75;;;5.40;99.90;;;;;;5111098;28;20098;-68
2021/11/16 08:51:59;;;;;;;127.38;45.80;;;5.40;99.90;;;;;;5090422;28;20016;-68
2021/11/16 08:54:27;;;;;;;127.65;45.95;;;5.40;99.90;;;;;;5103866;28;20032;-68
2021/11/16 08:56:53;;;;;;;123.28;44.70;;;5.30;99.90;;;;;;5110682;28;20035;-68
2021/11/16 08:59:20;;;;;;;122.60;44.70;;;5.30;99.90;;;;;;5107436;28;20031;-68
2021/11/16 09:02:00;;;;;;;122.63;45.08;;;5.40;99.90;;;;;;5102639;28;20110;-68
2021/11/16 09:04:29;;;;;;;116.95;43.47;;;5.40;99.90;;;;;;5090207;28;20473;-68
2021/11/16 09:06:56;;;;;;;115.00;46.05;;;5.40;99.90;;;;;;5097355;28;20050;-68
2021/11/16 09:09:23;;;;;;;118.28;44.22;;;5.50;99.90;;;;;;5110418;28;20489;-68
2021/11/16 09:12:00;;;;;;;112.50;43.22;;;5.50;99.90;;;;;;5103330;28;20347;-68
2021/11/16 09:14:26;;;;;;;116.25;45.13;;;5.50;99.90;;;;;;5101846;28;20026;-68
2021/11/16 09:16:52;;;;;;;120.90;43.65;;;5.50;99.90;;;;;;5103310;28;20020;-68
2021/11/16 09:19:34;;;;;;;113.15;41.85;;;5.50;99.90;;;;;;5104758;28;20026;-69
2021/11/16 09:22:01;;;;;;;116.13;43.55;;;5.60;99.90;;;;;;5100464;28;20039;-67
2021/11/16 09:24:37;;;;;;;105.60;41.83;;;5.60;99.90;;;;;;5087406;28;20056;-68
2021/11/16 09:29:48;;;;;;;106.80;42.42;;;5.70;99.90;;;;;;5110738;27;20363;-67
2021/11/16 09:32:15;;;;;;;105.97;41.78;;;5.70;99.90;;;;;;5093203;28;20090;-69
2021/11/16 09:34:44;;;;;;;117.13;44.08;;;5.60;99.90;;;;;;5111331;28;20020;-68
2021/11/16 09:37:21;;;;;;;113.63;43.03;;;5.60;99.90;;;;;;5111557;28;20020;-68
2021/11/16 09:39:50;;;;;;;108.07;42.67;;;5.60;99.90;;;;;;5110729;28;20043;-68
2021/11/16 09:42:25;;;;;;;105.82;41.30;;;5.60;99.90;;;;;;5110922;28;20097;-68
2021/11/16 09:44:54;;;;;;;115.07;43.10;;;5.60;99.90;;;;;;5107191;28;20066;-68
2021/11/16 09:47:25;;;;;;;106.20;39.97;;;5.60;99.90;;;;;;5110822;28;20024;-68
2021/11/16 09:52:36;;;;;;;112.20;42.88;;;5.60;99.90;;;;;;5071305;28;20441;-68
2021/11/16 09:55:09;;;;;;;108.75;42.40;;;5.70;99.90;;;;;;5069030;28;20020;-68
2021/11/16 09:57:39;;;;;;;109.90;43.13;;;5.70;99.90;;;;;;5069876;28;20059;-68
2021/11/16 10:00:31;;;;;;;106.43;39.90;;;5.70;99.90;;;;;;5068272;28;20028;-68
2021/11/16 10:03:05;;;;;;;103.28;37.53;;;5.80;99.90;;;;;;5067678;28;20474;-68
2021/11/16 10:05:38;;;;;;;97.22;37.60;;;5.80;99.90;;;;;;5069404;28;20048;-68
2021/11/16 10:08:04;;;;;;;94.57;36.90;;;5.90;99.90;;;;;;5068934;28;20024;-68
2021/11/16 10:10:35;;;;;;;87.93;37.40;;;5.90;99.90;;;;;;5069890;28;20071;-68
2021/11/16 10:13:07;;;;;;;91.97;38.08;;;5.90;99.90;;;;;;5068873;28;20029;-68
2021/11/16 10:15:36;;;;;;;69.57;28.10;;;5.90;99.90;;;;;;5070046;28;20033;-68
2021/11/16 10:18:02;;;;;;;95.22;38.67;;;5.90;99.90;;;;;;5069133;28;20271;-68
2021/11/16 10:20:31;;;;;;;92.68;36.85;;;5.90;99.90;;;;;;5069062;28;20530;-68
2021/11/16 10:23:00;;;;;;;98.65;39.83;;;5.90;99.90;;;;;;5069906;28;20025;-68
2021/11/16 10:25:29;;;;;;;97.25;37.05;;;5.90;99.90;;;;;;5069311;28;20033;-68
2021/11/16 10:27:56;;;;;;;91.72;38.30;;;6.00;99.90;;;;;;5048546;28;20022;-68
2021/11/16 10:30:27;;;;;;;94.93;37.63;;;6.00;99.90;;;;;;5068164;28;20035;-68
2021/11/16 10:33:21;;;;;;;100.20;39.58;;;6.00;99.90;;;;;;5069968;28;20069;-68
2021/11/16 10:35:50;;;;;;;105.65;38.30;;;6.00;99.90;;;;;;5069841;28;20017;-68
2021/11/16 10:38:21;;;;;;;104.90;39.83;;;5.90;99.90;;;;;;5069714;28;20021;-68
2021/11/16 10:40:48;;;;;;;93.55;38.97;;;6.00;99.90;;;;;;5069115;28;20016;-68
2021/11/16 10:43:14;;;;;;;98.80;38.70;;;6.00;99.90;;;;;;5068299;28;20056;-68
2021/11/16 10:45:43;;;;;;;93.45;37.63;;;6.00;99.90;;;;;;5069940;28;20030;-68
2021/11/16 10:48:12;;;;;;;93.53;37.08;;;6.00;99.90;;;;;;5069311;28;20111;-69
2021/11/16 10:50:40;;;;;;;90.90;36.67;;;6.00;99.90;;;;;;5067404;28;20033;-68
2021/11/16 10:53:10;;;;;;;90.70;38.03;;;5.90;99.90;;;;;;5068699;28;20024;-69
2021/11/16 10:55:46;;;;;;;86.05;35.28;;;5.90;99.90;;;;;;5061836;28;20497;-68
2021/11/16 10:58:16;;;;;;;90.05;36.95;;;6.00;99.90;;;;;;5069020;28;20021;-68
2021/11/16 11:00:47;;;;;;;89.70;36.35;;;6.00;99.90;;;;;;5069872;28;20033;-68
2021/11/16 11:03:17;;;;;;;79.45;33.50;;;6.00;99.90;;;;;;5059270;28;20021;-68
2021/11/16 11:05:46;;;;;;;76.35;32.45;;;6.00;99.90;;;;;;5055210;28;20033;-68
2021/11/16 11:08:27;;;;;;;82.95;32.45;;;5.90;99.90;;;;;;5055007;28;20033;-68
2021/11/16 11:10:52;;;;;;;75.35;30.35;;;6.00;99.90;;;;;;5054387;28;20166;-68
2021/11/16 11:13:20;;;;;;;69.40;30.42;;;6.00;99.90;;;;;;5053614;28;20489;-68
2021/11/16 11:15:48;;;;;;;80.82;33.58;;;6.10;99.90;;;;;;5055351;28;20478;-68
2021/11/16 11:18:28;;;;;;;83.30;33.17;;;6.10;99.90;;;;;;5055087;28;20017;-68
2021/11/16 11:20:54;;;;;;;82.28;32.55;;;6.10;99.90;;;;;;5050159;28;20394;-68
2021/11/16 11:23:42;;;;;;;84.28;34.33;;;6.10;99.90;;;;;;5053458;28;20048;-68
2021/11/16 11:29:29;;;;;;;79.63;32.58;;;6.00;99.90;;;;;;5091548;28;20409;-68
2021/11/16 11:32:00;;;;;;;77.07;31.65;;;6.00;99.90;;;;;;5057462;28;20020;-68
2021/11/16 11:34:48;;;;;;;75.13;32.90;;;5.90;99.90;;;;;;5091333;28;20016;-68
2021/11/16 11:37:18;;;;;;;78.55;34.38;;;5.90;99.90;;;;;;5076818;28;20063;-68
2021/11/16 11:39:53;;;;;;;77.72;31.88;;;5.90;99.90;;;;;;5080240;28;20056;-69
2021/11/16 11:42:18;;;;;;;81.55;32.47;;;6.00;99.90;;;;;;5078900;28;20536;-68
2021/11/16 11:45:11;;;;;;;77.95;33.85;;;6.00;99.90;;;;;;5090113;28;20111;-69
2021/11/16 11:47:39;;;;;;;76.25;32.00;;;6.00;99.90;;;;;;5068537;28;20070;-68
2021/11/16 11:50:41;;;;;;;77.82;31.90;;;6.10;99.90;;;;;;5050636;28;20104;-69
2021/11/16 11:53:19;;;;;;;68.22;30.60;;;6.10;99.90;;;;;;5064892;28;20071;-68
2021/11/16 11:55:49;;;;;;;77.50;31.33;;;6.00;99.90;;;;;;5076456;28;20029;-66
2021/11/16 11:58:17;;;;;;;70.03;29.65;;;6.00;99.90;;;;;;5077268;28;20090;-69
2021/11/16 12:00:45;;;;;;;81.25;32.63;;;6.00;99.90;;;;;;5075078;28;20412;-69
2021/11/16 12:03:11;;;;;;;75.82;31.08;;;6.00;99.90;;;;;;5049900;28;20025;-69
2021/11/16 12:05:40;;;;;;;73.70;29.50;;;6.10;99.90;;;;;;5041314;28;20025;-69
2021/11/16 12:08:07;;;;;;;75.13;30.42;;;6.00;99.90;;;;;;5071094;28;20031;-69
2021/11/16 12:10:34;;;;;;;70.90;29.70;;;6.00;99.90;;;;;;5070388;28;20017;-69
2021/11/16 12:13:00;;;;;;;68.47;30.75;;;6.00;99.90;;;;;;5071090;28;20021;-69
2021/11/16 12:16:01;;;;;;;68.63;30.00;;;6.00;99.90;;;;;;5088722;28;20385;-69
2021/11/16 12:18:36;;;;;;;65.43;28.25;;;6.00;99.90;;;;;;5082761;28;20067;-69
2021/11/16 12:21:02;;;;;;;70.82;31.17;;;6.10;99.90;;;;;;5069604;28;20441;-68
2021/11/16 12:23:50;;;;;;;64.72;30.40;;;6.10;99.90;;;;;;5080219;28;20052;-69
2021/11/16 12:26:17;;;;;;;70.70;28.73;;;6.20;99.90;;;;;;5075066;28;20111;-69
2021/11/16 12:28:44;;;;;;;71.85;28.95;;;6.10;99.90;;;;;;5087925;28;20481;-69
2021/11/16 12:31:28;;;;;;;65.45;28.52;;;6.10;99.90;;;;;;5080504;28;20386;-68
2021/11/16 12:33:57;;;;;;;67.38;27.10;;;6.10;99.90;;;;;;5069599;28;20025;-69
2021/11/16 12:36:45;;;;;;;75.97;34.88;;;6.10;99.90;;;;;;5070245;28;20437;-69
2021/11/16 12:39:14;;;;;;;69.00;31.40;;;6.10;99.90;;;;;;5063171;28;20159;-68
2021/11/16 12:41:42;;;;;;;65.30;28.75;;;6.00;99.90;;;;;;5074029;28;20029;-68
2021/11/16 12:44:11;;;;;;;73.70;31.58;;;6.00;99.90;;;;;;5072956;28;20033;-69
2021/11/16 12:46:39;;;;;;;72.85;29.55;;;6.10;99.90;;;;;;5072993;28;20197;-68
2021/11/16 12:49:09;;;;;;;66.93;29.15;;;6.00;99.90;;;;;;5074480;28;20025;-69
2021/11/16 12:51:51;;;;;;;67.90;29.85;;;6.00;99.90;;;;;;5058344;28;20025;-69
2021/11/16 12:54:23;;;;;;;62.03;28.83;;;5.90;99.90;;;;;;5055769;28;20050;-69
2021/11/16 13:02:33;;;;;;;64.72;28.05;;;6.00;99.90;;;;;;5090979;28;20401;-68
2021/11/16 13:05:09;;;;;;;69.72;28.77;;;6.00;99.90;;;;;;5089405;28;20032;-69
2021/11/16 13:10:17;;;;;;;74.90;28.10;;;6.10;99.90;;;;;;5111484;27;20486;-68
2021/11/16 13:13:13;;;;;;;63.10;28.05;;;6.10;99.90;;;;;;5088437;28;20024;-68
2021/11/16 13:15:41;;;;;;;64.95;28.48;;;6.10;99.90;;;;;;5091324;28;20480;-68
2021/11/16 13:18:25;;;;;;;58.08;27.75;;;6.10;99.90;;;;;;5096570;28;20049;-68
2021/11/16 13:20:57;;;;;;;65.60;28.10;;;6.10;99.90;;;;;;5095369;28;20466;-68
2021/11/16 13:23:28;;;;;;;62.45;27.25;;;6.20;99.90;;;;;;5091105;28;20050;-68